sensor_id;sensor_type;location;lat;lon;timestamp;pressure;altitude;pressure_sealevel;temperature;humidity
22206;BME280;11272;50.104;8.754;2024-02-26T00:00:32;98870.75;;;9.15;59.78
22206;BME280;11272;50.104;8.754;2024-02-26T00:03:01;98865.41;;;9.16;60.02
22206;BME280;11272;50.104;8.754;2024-02-26T00:05:28;98868.88;;;9.18;60.17
22206;BME280;11272;50.104;8.754;2024-02-26T00:07:53;98859.97;;;9.19;59.90
22206;BME280;11272;50.104;8.754;2024-02-26T00:10:19;98866.94;;;9.22;60.02
22206;BME280;11272;50.104;8.754;2024-02-26T00:12:44;98878.34;;;9.24;59.71
22206;BME280;11272;50.104;8.754;2024-02-26T00:15:10;98857.28;;;9.21;60.28
22206;BME280;11272;50.104;8.754;2024-02-26T00:17:36;98851.94;;;9.22;60.08
22206;BME280;11272;50.104;8.754;2024-02-26T00:20:02;98847.41;;;9.24;59.61
22206;BME280;11272;50.104;8.754;2024-02-26T00:22:30;98852.69;;;9.24;59.98
22206;BME280;11272;50.104;8.754;2024-02-26T00:24:57;98856.31;;;9.23;60.38
22206;BME280;11272;50.104;8.754;2024-02-26T00:27:24;98849.22;;;9.24;60.23
22206;BME280;11272;50.104;8.754;2024-02-26T00:29:49;98848.06;;;9.29;60.24
22206;BME280;11272;50.104;8.754;2024-02-26T00:32:15;98844.50;;;9.30;59.70
22206;BME280;11272;50.104;8.754;2024-02-26T00:34:40;98838.44;;;9.28;60.06
22206;BME280;11272;50.104;8.754;2024-02-26T00:37:06;98837.56;;;9.28;60.07
22206;BME280;11272;50.104;8.754;2024-02-26T00:39:31;98835.78;;;9.28;60.27
22206;BME280;11272;50.104;8.754;2024-02-26T00:41:57;98812.88;;;9.27;59.73
22206;BME280;11272;50.104;8.754;2024-02-26T00:44:23;98824.38;;;9.26;60.37
22206;BME280;11272;50.104;8.754;2024-02-26T00:46:49;98820.81;;;9.27;60.30
22206;BME280;11272;50.104;8.754;2024-02-26T00:49:14;98819.09;;;9.26;60.02
22206;BME280;11272;50.104;8.754;2024-02-26T00:51:40;98827.03;;;9.26;59.75
22206;BME280;11272;50.104;8.754;2024-02-26T00:54:06;98821.72;;;9.26;59.77
22206;BME280;11272;50.104;8.754;2024-02-26T00:56:32;98821.69;;;9.28;60.15
22206;BME280;11272;50.104;8.754;2024-02-26T00:59:01;98816.38;;;9.28;60.08
22206;BME280;11272;50.104;8.754;2024-02-26T01:01:27;98805.03;;;9.24;60.14
22206;BME280;11272;50.104;8.754;2024-02-26T01:03:52;98804.13;;;9.25;59.90
22206;BME280;11272;50.104;8.754;2024-02-26T01:06:18;98791.75;;;9.26;60.48
22206;BME280;11272;50.104;8.754;2024-02-26T01:08:44;98799.63;;;9.27;59.88
22206;BME280;11272;50.104;8.754;2024-02-26T01:11:09;98793.41;;;9.28;60.00
22206;BME280;11272;50.104;8.754;2024-02-26T01:13:35;98802.22;;;9.29;60.15
22206;BME280;11272;50.104;8.754;2024-02-26T01:16:00;98809.34;;;9.27;60.12
22206;BME280;11272;50.104;8.754;2024-02-26T01:18:26;98813.78;;;9.26;60.21
22206;BME280;11272;50.104;8.754;2024-02-26T01:20:52;98809.31;;;9.28;60.12
22206;BME280;11272;50.104;8.754;2024-02-26T01:23:20;98796.06;;;9.28;60.41
22206;BME280;11272;50.104;8.754;2024-02-26T01:25:45;98784.66;;;9.26;60.60
22206;BME280;11272;50.104;8.754;2024-02-26T01:28:11;98824.38;;;9.26;60.15
22206;BME280;11272;50.104;8.754;2024-02-26T01:30:37;98813.94;;;9.23;60.65
22206;BME280;11272;50.104;8.754;2024-02-26T01:33:02;98801.59;;;9.22;60.29
22206;BME280;11272;50.104;8.754;2024-02-26T01:35:29;98822.78;;;9.22;60.42
22206;BME280;11272;50.104;8.754;2024-02-26T01:37:55;98819.28;;;9.22;60.75
22206;BME280;11272;50.104;8.754;2024-02-26T01:40:21;98818.38;;;9.23;60.56
22206;BME280;11272;50.104;8.754;2024-02-26T01:42:47;98804.19;;;9.24;60.32
22206;BME280;11272;50.104;8.754;2024-02-26T01:45:17;98811.19;;;9.25;60.57
22206;BME280;11272;50.104;8.754;2024-02-26T01:47:52;98794.44;;;9.24;60.62
22206;BME280;11272;50.104;8.754;2024-02-26T01:50:20;98805.84;;;9.26;60.82
22206;BME280;11272;50.104;8.754;2024-02-26T01:52:49;98806.72;;;9.27;60.32
22206;BME280;11272;50.104;8.754;2024-02-26T01:55:15;98820.81;;;9.27;61.09
22206;BME280;11272;50.104;8.754;2024-02-26T01:57:43;98802.22;;;9.29;60.83
22206;BME280;11272;50.104;8.754;2024-02-26T02:00:11;98818.09;;;9.29;60.67
22206;BME280;11272;50.104;8.754;2024-02-26T02:02:38;98815.47;;;9.29;60.47
22206;BME280;11272;50.104;8.754;2024-02-26T02:05:05;98807.44;;;9.30;60.57
22206;BME280;11272;50.104;8.754;2024-02-26T02:07:31;98802.13;;;9.30;60.40
22206;BME280;11272;50.104;8.754;2024-02-26T02:09:58;98797.63;;;9.33;60.64
22206;BME280;11272;50.104;8.754;2024-02-26T02:12:23;98773.81;;;9.33;60.54
22206;BME280;11272;50.104;8.754;2024-02-26T02:14:49;98761.41;;;9.33;60.36
22206;BME280;11272;50.104;8.754;2024-02-26T02:17:15;98781.75;;;9.33;60.88
22206;BME280;11272;50.104;8.754;2024-02-26T02:19:41;98814.44;;;9.32;61.00
22206;BME280;11272;50.104;8.754;2024-02-26T02:22:06;98794.19;;;9.30;60.58
22206;BME280;11272;50.104;8.754;2024-02-26T02:24:32;98828.56;;;9.32;60.68
22206;BME280;11272;50.104;8.754;2024-02-26T02:26:57;98815.31;;;9.32;60.45
22206;BME280;11272;50.104;8.754;2024-02-26T02:29:23;98807.38;;;9.32;60.85
22206;BME280;11272;50.104;8.754;2024-02-26T02:31:49;98819.69;;;9.33;60.99
22206;BME280;11272;50.104;8.754;2024-02-26T02:34:14;98816.22;;;9.31;60.54
22206;BME280;11272;50.104;8.754;2024-02-26T02:36:52;98810.94;;;9.31;61.13
22206;BME280;11272;50.104;8.754;2024-02-26T02:39:17;98850.66;;;9.31;60.72
22206;BME280;11272;50.104;8.754;2024-02-26T02:41:43;98828.63;;;9.30;60.93
22206;BME280;11272;50.104;8.754;2024-02-26T02:44:09;98832.28;;;9.28;60.93
22206;BME280;11272;50.104;8.754;2024-02-26T02:46:34;98829.69;;;9.26;60.99
22206;BME280;11272;50.104;8.754;2024-02-26T02:49:01;98834.16;;;9.24;60.62
22206;BME280;11272;50.104;8.754;2024-02-26T02:51:26;98830.69;;;9.24;60.69
22206;BME280;11272;50.104;8.754;2024-02-26T02:53:52;98835.97;;;9.24;60.83
22206;BME280;11272;50.104;8.754;2024-02-26T02:56:18;98834.16;;;9.24;61.00
22206;BME280;11272;50.104;8.754;2024-02-26T02:58:44;98835.13;;;9.23;60.99
22206;BME280;11272;50.104;8.754;2024-02-26T03:01:10;98832.38;;;9.25;61.29
22206;BME280;11272;50.104;8.754;2024-02-26T03:03:36;98836.81;;;9.24;61.37
22206;BME280;11272;50.104;8.754;2024-02-26T03:06:02;98836.91;;;9.23;61.33
22206;BME280;11272;50.104;8.754;2024-02-26T03:08:28;98842.09;;;9.24;60.95
22206;BME280;11272;50.104;8.754;2024-02-26T03:10:54;98843.94;;;9.24;61.21
22206;BME280;11272;50.104;8.754;2024-02-26T03:13:20;98836.69;;;9.27;60.98
22206;BME280;11272;50.104;8.754;2024-02-26T03:15:45;98835.78;;;9.28;61.23
22206;BME280;11272;50.104;8.754;2024-02-26T03:18:11;98833.13;;;9.28;60.64
22206;BME280;11272;50.104;8.754;2024-02-26T03:20:36;98836.56;;;9.30;60.89
22206;BME280;11272;50.104;8.754;2024-02-26T03:23:03;98840.03;;;9.33;60.89
22206;BME280;11272;50.104;8.754;2024-02-26T03:25:28;98836.50;;;9.32;60.96
22206;BME280;11272;50.104;8.754;2024-02-26T03:27:54;98841.81;;;9.32;60.99
22206;BME280;11272;50.104;8.754;2024-02-26T03:30:19;98849.81;;;9.30;60.88
22206;BME280;11272;50.104;8.754;2024-02-26T03:32:45;98838.28;;;9.32;60.94
22206;BME280;11272;50.104;8.754;2024-02-26T03:35:12;98848.84;;;9.33;61.21
22206;BME280;11272;50.104;8.754;2024-02-26T03:37:37;98841.75;;;9.34;60.97
22206;BME280;11272;50.104;8.754;2024-02-26T03:40:04;98840.81;;;9.35;61.05
22206;BME280;11272;50.104;8.754;2024-02-26T03:42:29;98848.78;;;9.35;61.03
22206;BME280;11272;50.104;8.754;2024-02-26T03:44:55;98848.78;;;9.35;61.09
22206;BME280;11272;50.104;8.754;2024-02-26T03:47:20;98842.63;;;9.34;61.31
22206;BME280;11272;50.104;8.754;2024-02-26T03:49:46;98832.88;;;9.35;61.48
22206;BME280;11272;50.104;8.754;2024-02-26T03:52:11;98835.53;;;9.35;61.15
22206;BME280;11272;50.104;8.754;2024-02-26T03:54:37;98832.88;;;9.35;61.26
22206;BME280;11272;50.104;8.754;2024-02-26T03:57:03;98845.19;;;9.36;60.98
22206;BME280;11272;50.104;8.754;2024-02-26T03:59:30;98849.59;;;9.35;61.51
22206;BME280;11272;50.104;8.754;2024-02-26T04:04:36;98849.59;;;9.35;60.93
22206;BME280;11272;50.104;8.754;2024-02-26T04:07:01;98849.59;;;9.35;61.09
22206;BME280;11272;50.104;8.754;2024-02-26T04:09:27;98853.97;;;9.36;61.04
22206;BME280;11272;50.104;8.754;2024-02-26T04:11:52;98853.13;;;9.36;61.32
22206;BME280;11272;50.104;8.754;2024-02-26T04:14:18;98865.44;;;9.37;60.78
22206;BME280;11272;50.104;8.754;2024-02-26T04:16:43;98853.06;;;9.37;60.89
22206;BME280;11272;50.104;8.754;2024-02-26T04:19:08;98842.53;;;9.36;60.62
22206;BME280;11272;50.104;8.754;2024-02-26T04:21:34;98852.19;;;9.37;60.71
22206;BME280;11272;50.104;8.754;2024-02-26T04:24:00;98853.94;;;9.38;60.62
22206;BME280;11272;50.104;8.754;2024-02-26T04:26:28;98842.47;;;9.37;60.83
22206;BME280;11272;50.104;8.754;2024-02-26T04:28:54;98851.28;;;9.38;61.07
22206;BME280;11272;50.104;8.754;2024-02-26T04:31:20;98854.78;;;9.38;61.16
22206;BME280;11272;50.104;8.754;2024-02-26T04:33:45;98853.00;;;9.39;60.92
22206;BME280;11272;50.104;8.754;2024-02-26T04:36:14;98856.53;;;9.39;60.60
22206;BME280;11272;50.104;8.754;2024-02-26T04:38:43;98854.78;;;9.38;60.99
22206;BME280;11272;50.104;8.754;2024-02-26T04:41:09;98858.31;;;9.39;60.95
22206;BME280;11272;50.104;8.754;2024-02-26T04:43:37;98863.59;;;9.39;61.22
22206;BME280;11272;50.104;8.754;2024-02-26T04:46:09;98849.44;;;9.40;60.90
22206;BME280;11272;50.104;8.754;2024-02-26T04:48:35;98846.78;;;9.40;61.11
22206;BME280;11272;50.104;8.754;2024-02-26T04:51:02;98855.66;;;9.39;61.01
22206;BME280;11272;50.104;8.754;2024-02-26T04:53:28;98846.78;;;9.40;60.82
22206;BME280;11272;50.104;8.754;2024-02-26T04:55:54;98852.09;;;9.40;61.44
22206;BME280;11272;50.104;8.754;2024-02-26T04:58:19;98857.38;;;9.40;61.01
22206;BME280;11272;50.104;8.754;2024-02-26T05:00:45;98859.09;;;9.41;61.31
22206;BME280;11272;50.104;8.754;2024-02-26T05:03:10;98865.25;;;9.41;60.88
22206;BME280;11272;50.104;8.754;2024-02-26T05:05:39;98873.28;;;9.40;61.34
22206;BME280;11272;50.104;8.754;2024-02-26T05:08:06;98879.34;;;9.42;61.06
22206;BME280;11272;50.104;8.754;2024-02-26T05:10:33;98876.72;;;9.42;61.11
22206;BME280;11272;50.104;8.754;2024-02-26T05:12:58;98880.28;;;9.41;61.73
22206;BME280;11272;50.104;8.754;2024-02-26T05:15:24;98878.69;;;9.37;61.82
22206;BME280;11272;50.104;8.754;2024-02-26T05:17:49;98884.91;;;9.36;61.29
22206;BME280;11272;50.104;8.754;2024-02-26T05:20:15;98878.81;;;9.34;61.16
22206;BME280;11272;50.104;8.754;2024-02-26T05:22:40;98885.97;;;9.32;61.88
22206;BME280;11272;50.104;8.754;2024-02-26T05:25:06;98886.88;;;9.30;61.84
22206;BME280;11272;50.104;8.754;2024-02-26T05:27:32;98880.81;;;9.28;61.77
22206;BME280;11272;50.104;8.754;2024-02-26T05:29:57;98877.50;;;9.23;62.21
22206;BME280;11272;50.104;8.754;2024-02-26T05:32:23;98877.59;;;9.20;62.37
22206;BME280;11272;50.104;8.754;2024-02-26T05:34:48;98872.34;;;9.19;62.01
22206;BME280;11272;50.104;8.754;2024-02-26T05:37:14;98876.88;;;9.17;62.72
22206;BME280;11272;50.104;8.754;2024-02-26T05:39:39;98882.22;;;9.15;62.25
22206;BME280;11272;50.104;8.754;2024-02-26T05:42:05;98884.91;;;9.14;62.85
22206;BME280;11272;50.104;8.754;2024-02-26T05:44:30;98891.09;;;9.14;62.79
22206;BME280;11272;50.104;8.754;2024-02-26T05:46:56;98897.31;;;9.13;63.08
22206;BME280;11272;50.104;8.754;2024-02-26T05:49:22;98897.31;;;9.13;63.46
22206;BME280;11272;50.104;8.754;2024-02-26T05:51:48;98893.88;;;9.11;63.10
22206;BME280;11272;50.104;8.754;2024-02-26T05:54:13;98893.88;;;9.11;63.61
22206;BME280;11272;50.104;8.754;2024-02-26T05:56:39;98901.00;;;9.09;63.65
22206;BME280;11272;50.104;8.754;2024-02-26T05:59:05;98896.69;;;9.07;63.61
22206;BME280;11272;50.104;8.754;2024-02-26T06:01:30;98902.06;;;9.05;63.98
22206;BME280;11272;50.104;8.754;2024-02-26T06:03:56;98902.97;;;9.04;63.89
22206;BME280;11272;50.104;8.754;2024-02-26T06:06:22;98897.75;;;9.03;63.96
22206;BME280;11272;50.104;8.754;2024-02-26T06:08:50;98894.25;;;9.02;63.89
22206;BME280;11272;50.104;8.754;2024-02-26T06:11:15;98899.66;;;8.99;63.92
22206;BME280;11272;50.104;8.754;2024-02-26T06:13:41;98900.75;;;8.94;64.07
22206;BME280;11272;50.104;8.754;2024-02-26T06:16:08;98901.81;;;8.90;64.00
22206;BME280;11272;50.104;8.754;2024-02-26T06:18:33;98903.72;;;8.86;64.74
22206;BME280;11272;50.104;8.754;2024-02-26T06:20:59;98916.25;;;8.81;64.89
22206;BME280;11272;50.104;8.754;2024-02-26T06:23:25;98912.00;;;8.77;64.62
22206;BME280;11272;50.104;8.754;2024-02-26T06:25:51;98920.06;;;8.74;65.18
22206;BME280;11272;50.104;8.754;2024-02-26T06:28:17;98923.81;;;8.68;64.94
22206;BME280;11272;50.104;8.754;2024-02-26T06:30:43;98924.72;;;8.67;65.50
22206;BME280;11272;50.104;8.754;2024-02-26T06:33:10;98936.16;;;8.68;65.78
22206;BME280;11272;50.104;8.754;2024-02-26T06:35:36;98937.06;;;8.67;66.11
22206;BME280;11272;50.104;8.754;2024-02-26T06:38:02;98941.59;;;8.65;66.50
22206;BME280;11272;50.104;8.754;2024-02-26T06:40:27;98943.41;;;8.63;67.12
22206;BME280;11272;50.104;8.754;2024-02-26T06:42:53;98953.13;;;8.62;67.64
22206;BME280;11272;50.104;8.754;2024-02-26T06:45:19;98954.91;;;8.62;68.35
22206;BME280;11272;50.104;8.754;2024-02-26T06:47:44;98964.75;;;8.58;68.72
22206;BME280;11272;50.104;8.754;2024-02-26T06:50:12;98965.72;;;8.56;69.57
22206;BME280;11272;50.104;8.754;2024-02-26T06:52:39;98967.63;;;8.52;70.55
22206;BME280;11272;50.104;8.754;2024-02-26T06:55:05;98966.75;;;8.52;71.30
22206;BME280;11272;50.104;8.754;2024-02-26T06:57:32;98977.47;;;8.49;71.78
22206;BME280;11272;50.104;8.754;2024-02-26T06:59:58;98974.00;;;8.47;72.39
22206;BME280;11272;50.104;8.754;2024-02-26T07:02:24;98975.81;;;8.44;73.17
22206;BME280;11272;50.104;8.754;2024-02-26T07:04:50;98980.31;;;8.42;73.90
22206;BME280;11272;50.104;8.754;2024-02-26T07:07:15;98982.16;;;8.40;74.47
22206;BME280;11272;50.104;8.754;2024-02-26T07:09:43;98985.53;;;8.44;75.44
22206;BME280;11272;50.104;8.754;2024-02-26T07:12:09;98987.28;;;8.45;76.52
22206;BME280;11272;50.104;8.754;2024-02-26T07:14:34;98988.13;;;8.45;77.16
22206;BME280;11272;50.104;8.754;2024-02-26T07:17:03;98992.50;;;8.47;77.62
22206;BME280;11272;50.104;8.754;2024-02-26T07:19:28;98999.53;;;8.48;78.45
22206;BME280;11272;50.104;8.754;2024-02-26T07:21:54;99001.31;;;8.47;79.21
22206;BME280;11272;50.104;8.754;2024-02-26T07:24:19;99002.19;;;8.48;79.97
22206;BME280;11272;50.104;8.754;2024-02-26T07:26:45;99008.34;;;8.48;80.99
22206;BME280;11272;50.104;8.754;2024-02-26T07:29:10;99010.97;;;8.48;81.23
22206;BME280;11272;50.104;8.754;2024-02-26T07:31:36;99011.91;;;8.47;81.67
22206;BME280;11272;50.104;8.754;2024-02-26T07:34:01;99013.69;;;8.47;82.29
22206;BME280;11272;50.104;8.754;2024-02-26T07:36:27;99011.94;;;8.45;83.02
22206;BME280;11272;50.104;8.754;2024-02-26T07:38:52;99009.25;;;8.47;83.48
22206;BME280;11272;50.104;8.754;2024-02-26T07:41:20;99017.94;;;8.51;83.93
22206;BME280;11272;50.104;8.754;2024-02-26T07:43:45;99017.94;;;8.51;84.56
22206;BME280;11272;50.104;8.754;2024-02-26T07:46:11;99018.84;;;8.50;84.87
22206;BME280;11272;50.104;8.754;2024-02-26T07:48:38;99019.78;;;8.49;85.04
22206;BME280;11272;50.104;8.754;2024-02-26T07:51:04;99020.69;;;8.48;85.55
22206;BME280;11272;50.104;8.754;2024-02-26T07:53:30;99020.66;;;8.49;85.96
22206;BME280;11272;50.104;8.754;2024-02-26T07:55:56;99021.50;;;8.50;86.66
22206;BME280;11272;50.104;8.754;2024-02-26T07:58:23;99024.13;;;8.50;86.78
22206;BME280;11272;50.104;8.754;2024-02-26T08:00:49;99025.00;;;8.50;87.02
22206;BME280;11272;50.104;8.754;2024-02-26T08:03:14;99030.38;;;8.49;87.46
22206;BME280;11272;50.104;8.754;2024-02-26T08:05:41;99025.06;;;8.49;87.88
22206;BME280;11272;50.104;8.754;2024-02-26T08:08:08;99033.94;;;8.48;88.29
22206;BME280;11272;50.104;8.754;2024-02-26T08:10:34;99036.44;;;8.51;88.65
22206;BME280;11272;50.104;8.754;2024-02-26T08:13:00;99038.19;;;8.52;88.98
22206;BME280;11272;50.104;8.754;2024-02-26T08:15:36;99034.63;;;8.53;89.24
22206;BME280;11272;50.104;8.754;2024-02-26T08:18:05;99045.94;;;8.56;89.26
22206;BME280;11272;50.104;8.754;2024-02-26T08:20:31;99042.38;;;8.57;89.38
22206;BME280;11272;50.104;8.754;2024-02-26T08:22:57;99044.06;;;8.60;89.76
22206;BME280;11272;50.104;8.754;2024-02-26T08:25:23;99046.59;;;8.63;89.85
22206;BME280;11272;50.104;8.754;2024-02-26T08:27:49;99046.56;;;8.64;89.94
22206;BME280;11272;50.104;8.754;2024-02-26T08:30:15;99042.88;;;8.68;90.57
22206;BME280;11272;50.104;8.754;2024-02-26T08:32:47;99039.22;;;8.71;90.71
22206;BME280;11272;50.104;8.754;2024-02-26T08:35:13;99040.91;;;8.73;91.24
22206;BME280;11272;50.104;8.754;2024-02-26T08:37:38;99039.09;;;8.75;91.32
22206;BME280;11272;50.104;8.754;2024-02-26T08:40:05;99039.72;;;8.82;91.93
22206;BME280;11272;50.104;8.754;2024-02-26T08:42:31;99042.22;;;8.86;91.95
22206;BME280;11272;50.104;8.754;2024-02-26T08:44:56;99039.38;;;8.91;92.09
22206;BME280;11272;50.104;8.754;2024-02-26T08:47:24;99056.00;;;8.95;92.27
22206;BME280;11272;50.104;8.754;2024-02-26T08:49:49;99052.53;;;8.93;92.04
22206;BME280;11272;50.104;8.754;2024-02-26T08:52:15;99056.94;;;8.94;92.31
22206;BME280;11272;50.104;8.754;2024-02-26T08:54:40;99058.59;;;8.96;92.34
22206;BME280;11272;50.104;8.754;2024-02-26T08:57:06;99055.06;;;8.97;92.46
22206;BME280;11272;50.104;8.754;2024-02-26T08:59:32;99054.19;;;8.97;92.83
22206;BME280;11272;50.104;8.754;2024-02-26T09:01:57;99043.59;;;8.97;92.70
22206;BME280;11272;50.104;8.754;2024-02-26T09:04:23;99056.75;;;8.98;93.09
22206;BME280;11272;50.104;8.754;2024-02-26T09:06:48;99060.22;;;9.00;93.06
22206;BME280;11272;50.104;8.754;2024-02-26T09:09:14;99061.13;;;8.99;92.83
22206;BME280;11272;50.104;8.754;2024-02-26T09:11:40;99056.59;;;9.03;93.70
22206;BME280;11272;50.104;8.754;2024-02-26T09:14:05;99071.53;;;9.04;93.25
22206;BME280;11272;50.104;8.754;2024-02-26T09:16:31;99062.72;;;9.03;93.85
22206;BME280;11272;50.104;8.754;2024-02-26T09:18:56;99070.69;;;9.03;93.76
22206;BME280;11272;50.104;8.754;2024-02-26T09:21:22;99057.44;;;9.03;93.76
22206;BME280;11272;50.104;8.754;2024-02-26T09:23:50;99060.91;;;9.05;93.99
22206;BME280;11272;50.104;8.754;2024-02-26T09:26:16;99066.94;;;9.09;94.37
22206;BME280;11272;50.104;8.754;2024-02-26T09:28:42;99066.78;;;9.13;94.79
22206;BME280;11272;50.104;8.754;2024-02-26T09:31:08;99064.94;;;9.15;94.46
22206;BME280;11272;50.104;8.754;2024-02-26T09:33:34;99076.38;;;9.16;94.35
22206;BME280;11272;50.104;8.754;2024-02-26T09:35:59;99078.91;;;9.19;94.88
22206;BME280;11272;50.104;8.754;2024-02-26T09:38:28;99085.94;;;9.20;94.66
22206;BME280;11272;50.104;8.754;2024-02-26T09:40:57;99078.00;;;9.20;95.29
22206;BME280;11272;50.104;8.754;2024-02-26T09:43:23;99082.38;;;9.21;95.11
22206;BME280;11272;50.104;8.754;2024-02-26T09:45:53;99077.94;;;9.21;95.33
22206;BME280;11272;50.104;8.754;2024-02-26T09:48:19;99081.28;;;9.26;95.53
22206;BME280;11272;50.104;8.754;2024-02-26T09:50:46;99081.09;;;9.31;95.63
22206;BME280;11272;50.104;8.754;2024-02-26T09:53:12;99087.16;;;9.35;95.88
22206;BME280;11272;50.104;8.754;2024-02-26T09:55:40;99086.91;;;9.41;95.90
22206;BME280;11272;50.104;8.754;2024-02-26T09:58:05;99090.13;;;9.49;96.17
22206;BME280;11272;50.104;8.754;2024-02-26T10:00:32;99086.50;;;9.51;96.08
22206;BME280;11272;50.104;8.754;2024-02-26T10:03:04;99088.91;;;9.57;96.51
22206;BME280;11272;50.104;8.754;2024-02-26T10:05:31;99087.75;;;9.64;96.88
22206;BME280;11272;50.104;8.754;2024-02-26T10:07:59;99092.88;;;9.69;96.23
22206;BME280;11272;50.104;8.754;2024-02-26T10:10:29;99093.59;;;9.72;96.09
22206;BME280;11272;50.104;8.754;2024-02-26T10:12:54;99096.19;;;9.74;96.40
22206;BME280;11272;50.104;8.754;2024-02-26T10:15:20;99094.22;;;9.79;96.53
22206;BME280;11272;50.104;8.754;2024-02-26T10:17:45;99093.13;;;9.85;96.73
22206;BME280;11272;50.104;8.754;2024-02-26T10:20:16;99090.53;;;9.83;96.12
22206;BME280;11272;50.104;8.754;2024-02-26T10:22:46;99095.72;;;9.86;96.16
22206;BME280;11272;50.104;8.754;2024-02-26T10:25:13;99094.66;;;9.90;96.67
22206;BME280;11272;50.104;8.754;2024-02-26T10:27:42;99095.34;;;9.95;97.09
22206;BME280;11272;50.104;8.754;2024-02-26T10:30:19;99094.28;;;9.99;97.20
22206;BME280;11272;50.104;8.754;2024-02-26T10:32:45;99101.13;;;10.05;97.10
22206;BME280;11272;50.104;8.754;2024-02-26T10:35:13;99107.97;;;10.10;96.98
22206;BME280;11272;50.104;8.754;2024-02-26T10:37:40;99112.13;;;10.18;97.35
22206;BME280;11272;50.104;8.754;2024-02-26T10:40:10;99114.66;;;10.21;96.92
22206;BME280;11272;50.104;8.754;2024-02-26T10:42:35;99114.41;;;10.27;96.86
22206;BME280;11272;50.104;8.754;2024-02-26T10:45:01;99107.66;;;10.40;96.80
22206;BME280;11272;50.104;8.754;2024-02-26T10:47:28;99107.16;;;10.52;97.19
22206;BME280;11272;50.104;8.754;2024-02-26T10:49:55;99103.28;;;10.59;97.15
22206;BME280;11272;50.104;8.754;2024-02-26T10:52:22;99111.66;;;10.70;97.41
22206;BME280;11272;50.104;8.754;2024-02-26T10:54:53;99120.03;;;10.81;97.23
22206;BME280;11272;50.104;8.754;2024-02-26T10:57:19;99121.22;;;10.94;97.28
22206;BME280;11272;50.104;8.754;2024-02-26T10:59:48;99123.59;;;11.21;98.18
22206;BME280;11272;50.104;8.754;2024-02-26T11:02:14;99121.69;;;11.43;97.86
22206;BME280;11272;50.104;8.754;2024-02-26T11:04:40;99126.50;;;11.54;97.73
22206;BME280;11272;50.104;8.754;2024-02-26T11:07:08;99121.75;;;11.60;97.55
22206;BME280;11272;50.104;8.754;2024-02-26T11:09:34;99123.03;;;11.70;97.17
22206;BME280;11272;50.104;8.754;2024-02-26T11:12:02;99129.03;;;11.75;96.79
22206;BME280;11272;50.104;8.754;2024-02-26T11:14:33;99124.50;;;11.77;96.49
22206;BME280;11272;50.104;8.754;2024-02-26T11:16:59;99130.25;;;11.87;96.76
22206;BME280;11272;50.104;8.754;2024-02-26T11:19:26;99121.97;;;11.93;96.60
22206;BME280;11272;50.104;8.754;2024-02-26T11:21:53;99131.47;;;11.99;96.59
22206;BME280;11272;50.104;8.754;2024-02-26T11:24:18;99124.81;;;12.07;96.56
22206;BME280;11272;50.104;8.754;2024-02-26T11:26:57;99130.28;;;12.23;97.72
22206;BME280;11272;50.104;8.754;2024-02-26T11:29:33;99129.66;;;12.35;97.36
22206;BME280;11272;50.104;8.754;2024-02-26T11:32:00;99128.72;;;12.36;96.61
22206;BME280;11272;50.104;8.754;2024-02-26T11:34:26;99134.22;;;12.33;96.17
22206;BME280;11272;50.104;8.754;2024-02-26T11:36:53;99130.59;;;12.34;96.18
22206;BME280;11272;50.104;8.754;2024-02-26T11:39:19;99139.38;;;12.36;96.30
22206;BME280;11272;50.104;8.754;2024-02-26T11:41:45;99127.41;;;12.45;96.71
22206;BME280;11272;50.104;8.754;2024-02-26T11:44:10;99127.03;;;12.52;96.48
22206;BME280;11272;50.104;8.754;2024-02-26T11:46:40;99121.94;;;12.65;96.86
22206;BME280;11272;50.104;8.754;2024-02-26T11:51:58;99138.84;;;12.98;96.56
22206;BME280;11272;50.104;8.754;2024-02-26T11:54:48;99138.16;;;13.12;96.46
22206;BME280;11272;50.104;8.754;2024-02-26T11:57:37;99138.28;;;13.26;96.24
22206;BME280;11272;50.104;8.754;2024-02-26T12:02:52;99127.09;;;13.84;96.82
22206;BME280;11272;50.104;8.754;2024-02-26T12:05:23;99127.63;;;14.06;95.82
22206;BME280;11272;50.104;8.754;2024-02-26T12:08:01;99121.25;;;14.24;93.91
22206;BME280;11272;50.104;8.754;2024-02-26T12:10:33;99110.97;;;14.32;92.72
22206;BME280;11272;50.104;8.754;2024-02-26T12:13:09;99123.16;;;14.38;91.78
22206;BME280;11272;50.104;8.754;2024-02-26T12:15:43;99111.94;;;14.77;92.75
22206;BME280;11272;50.104;8.754;2024-02-26T12:18:10;99112.69;;;15.37;91.85
22206;BME280;11272;50.104;8.754;2024-02-26T12:20:41;99119.09;;;15.49;88.61
22206;BME280;11272;50.104;8.754;2024-02-26T12:23:06;99127.66;;;15.40;88.35
22206;BME280;11272;50.104;8.754;2024-02-26T12:25:32;99127.50;;;15.43;88.19
22206;BME280;11272;50.104;8.754;2024-02-26T12:27:59;99122.50;;;15.51;88.11
22206;BME280;11272;50.104;8.754;2024-02-26T12:30:25;99115.88;;;15.58;87.00
22206;BME280;11272;50.104;8.754;2024-02-26T12:32:52;99128.75;;;15.66;86.51
22206;BME280;11272;50.104;8.754;2024-02-26T12:35:23;99132.84;;;15.71;86.41
22206;BME280;11272;50.104;8.754;2024-02-26T12:37:49;99134.09;;;15.66;85.64
22206;BME280;11272;50.104;8.754;2024-02-26T12:40:17;99130.19;;;15.57;85.16
22206;BME280;11272;50.104;8.754;2024-02-26T12:42:42;99145.25;;;15.44;85.03
22206;BME280;11272;50.104;8.754;2024-02-26T12:45:12;99144.66;;;15.25;84.77
22206;BME280;11272;50.104;8.754;2024-02-26T12:47:39;99150.97;;;15.09;85.34
22206;BME280;11272;50.104;8.754;2024-02-26T12:50:05;99155.31;;;14.96;85.47
22206;BME280;11272;50.104;8.754;2024-02-26T12:52:32;99156.72;;;14.88;85.60
22206;BME280;11272;50.104;8.754;2024-02-26T12:54:59;99165.88;;;14.84;85.62
22206;BME280;11272;50.104;8.754;2024-02-26T12:57:25;99160.03;;;14.77;85.75
22206;BME280;11272;50.104;8.754;2024-02-26T12:59:52;99155.91;;;14.71;85.60
22206;BME280;11272;50.104;8.754;2024-02-26T13:02:18;99153.69;;;14.64;85.44
22206;BME280;11272;50.104;8.754;2024-02-26T13:04:44;99153.78;;;14.62;85.61
22206;BME280;11272;50.104;8.754;2024-02-26T13:07:09;99157.22;;;14.64;85.88
22206;BME280;11272;50.104;8.754;2024-02-26T13:09:36;99172.22;;;14.67;85.40
22206;BME280;11272;50.104;8.754;2024-02-26T13:12:04;99166.78;;;14.68;85.49
22206;BME280;11272;50.104;8.754;2024-02-26T13:14:31;99178.50;;;14.66;84.54